SBSL/SLZ METAR and TAF weather

Enter ICAO airport designator
Station Type Date Time Source
SBSL METAR 2020/10/20 17:00 UTC NOAA

SBSL 201700Z 05015KT 9999 SCT017 32/23 Q1010


Station Type Date Time Source
SBSL Decoded METAR 2020/10/20 17:00 UTC NOAA

Sao Luiz Aeroporto , Brazil (SBSL) 02-36S 044-14W 53M
Oct 20, 2020 - 01:00 PM EDT / 2020.10.20 1700 UTC
Wind: from the NE (050 degrees) at 17 MPH (15 KT):0
Visibility: greater than 7 mile(s):0
Sky conditions: partly cloudy
Temperature: 89 F (32 C)
Heat index: 96.8 F (36.0 C):1
Dew Point: 73 F (23 C)
Relative Humidity: 59%
Pressure (altimeter): 29.83 in. Hg (1010 hPa)
ob: SBSL 201700Z 05015KT 9999 SCT017 32/23 Q1010
cycle: 17

Station Type Date Time Source
SBSL TAF 2020/10/20 18:59 UTC NOAA

TAF SBSL 201433Z 2018/2118 04017KT 9999 SCT025 TN26/2109Z TX32/2117Z
BECMG 2021/2023 04007KT
BECMG 2110/2112 06017KT
RMK PHI

Example: see airport list